createdAt,value
2018-06-03T00:01:47.645Z,78.10
2018-06-03T00:04:15.109Z,77.80
2018-06-03T00:06:42.669Z,78.00
2018-06-03T00:09:10.164Z,77.30
2018-06-03T00:11:36.877Z,77.20
2018-06-03T00:14:04.271Z,77.70
2018-06-03T00:16:30.527Z,77.80
2018-06-03T00:18:56.780Z,77.90
2018-06-03T00:21:35.352Z,77.90
2018-06-03T00:24:01.599Z,77.80
2018-06-03T00:26:27.917Z,78.10
2018-06-03T00:28:54.505Z,78.60
2018-06-03T00:31:20.725Z,77.70
2018-06-03T00:33:46.936Z,78.10
2018-06-03T00:36:25.535Z,78.30
2018-06-03T00:38:51.757Z,78.30
2018-06-03T00:41:19.541Z,78.70
2018-06-03T00:43:46.520Z,78.70
2018-06-03T00:46:12.757Z,78.40
2018-06-03T00:48:39.414Z,79.10
2018-06-03T00:51:05.647Z,79.00
2018-06-03T00:53:32.365Z,80.00
2018-06-03T00:55:59.113Z,79.80
2018-06-03T00:58:25.334Z,79.60
2018-06-03T01:00:52.397Z,80.70
2018-06-03T01:03:18.623Z,80.70
2018-06-03T01:05:44.865Z,80.10
2018-06-03T01:08:11.689Z,80.30
2018-06-03T01:10:38.645Z,80.10
2018-06-03T01:13:05.475Z,80.10
2018-06-03T01:15:32.449Z,81.10
2018-06-03T01:17:59.273Z,81.20
2018-06-03T01:20:26.247Z,80.40
2018-06-03T01:22:52.469Z,80.40
2018-06-03T01:25:19.444Z,80.40
2018-06-03T01:27:46.309Z,80.40
2018-06-03T01:30:12.541Z,80.50
2018-06-03T01:32:38.765Z,80.80
2018-06-03T01:35:05.029Z,80.50
2018-06-03T01:37:31.266Z,80.50
2018-06-03T01:39:58.701Z,81.20
2018-06-03T01:42:25.433Z,81.20
2018-06-03T01:44:52.366Z,81.60
2018-06-03T01:47:19.061Z,80.60
2018-06-03T01:49:45.960Z,81.40
2018-06-03T01:52:12.205Z,81.90
2018-06-03T01:54:38.925Z,82.00
2018-06-03T01:57:05.885Z,81.70
2018-06-03T01:59:33.288Z,81.40
2018-06-03T02:01:59.509Z,81.50
2018-06-03T02:04:26.325Z,82.50
2018-06-03T02:06:53.732Z,83.20
2018-06-03T02:09:20.437Z,83.40
2018-06-03T02:11:46.650Z,84.40
2018-06-03T02:14:13.634Z,84.70
2018-06-03T02:16:40.385Z,84.50
2018-06-03T02:19:06.612Z,85.20
2018-06-03T02:21:32.837Z,84.10
2018-06-03T02:23:59.088Z,84.80
2018-06-03T02:26:25.309Z,84.50
2018-06-03T02:28:51.839Z,84.20
2018-06-03T02:31:18.795Z,85.40
2018-06-03T02:33:45.013Z,85.40
2018-06-03T02:36:11.989Z,85.40
2018-06-03T02:38:38.208Z,85.40
2018-06-03T02:41:07.839Z,85.40
2018-06-03T02:43:34.662Z,85.30
2018-06-03T02:46:01.646Z,85.70
2018-06-03T02:48:29.909Z,85.60
2018-06-03T02:50:56.128Z,85.80
2018-06-03T02:53:23.089Z,85.90
2018-06-03T02:55:49.333Z,85.70
2018-06-03T02:58:15.545Z,86.20
2018-06-03T03:00:42.590Z,86.50
2018-06-03T03:03:09.575Z,86.40
2018-06-03T03:05:36.436Z,86.30
2018-06-03T03:08:03.341Z,86.30
2018-06-03T03:10:30.313Z,85.70
2018-06-03T03:12:56.529Z,85.80
2018-06-03T03:15:23.526Z,85.60
2018-06-03T03:17:49.773Z,85.70
2018-06-03T03:20:16.101Z,86.20
2018-06-03T03:22:43.517Z,86.20
2018-06-03T03:25:10.480Z,86.40
2018-06-03T03:27:36.690Z,86.40
2018-06-03T03:30:04.123Z,87.80
2018-06-03T03:32:30.341Z,87.70
2018-06-03T03:34:56.656Z,87.30
2018-06-03T03:37:22.893Z,86.80
2018-06-03T03:39:49.108Z,86.40
2018-06-03T03:42:15.783Z,86.30
2018-06-03T03:44:42.488Z,86.90
2018-06-03T03:47:10.049Z,86.80
2018-06-03T03:49:37.453Z,86.60
2018-06-03T03:52:03.685Z,86.60
2018-06-03T03:54:29.905Z,86.10
2018-06-03T03:56:56.133Z,87.00
2018-06-03T03:59:22.349Z,86.00
2018-06-03T04:01:50.141Z,86.60
2018-06-03T04:04:16.357Z,86.60
2018-06-03T04:07:17.376Z,86.20
2018-06-03T04:09:45.328Z,85.70
2018-06-03T04:12:12.864Z,86.00
2018-06-03T04:14:40.376Z,86.30
2018-06-03T04:17:07.941Z,86.20
2018-06-03T04:19:35.470Z,85.80
2018-06-03T04:22:03.101Z,85.60
2018-06-03T04:24:30.705Z,85.40
2018-06-03T04:26:58.239Z,85.20
2018-06-03T04:29:26.309Z,84.90
2018-06-03T04:31:54.381Z,84.70
2018-06-03T04:34:22.365Z,84.40
2018-06-03T04:36:49.916Z,84.10
2018-06-03T04:39:17.437Z,83.80
2018-06-03T04:41:45.389Z,83.80
2018-06-03T04:44:14.199Z,83.60
2018-06-03T04:46:41.726Z,83.50
2018-06-03T04:49:09.757Z,83.60
2018-06-03T04:51:37.831Z,83.10
2018-06-03T04:54:05.631Z,82.60
2018-06-03T04:56:33.173Z,82.70
2018-06-03T04:59:01.549Z,82.30
2018-06-03T05:01:29.096Z,82.30
2018-06-03T05:03:56.981Z,82.00
2018-06-03T05:06:25.208Z,81.80
2018-06-03T05:08:53.189Z,81.20
2018-06-03T05:11:20.826Z,80.50
2018-06-03T05:13:48.436Z,80.70
2018-06-03T05:16:16.006Z,80.70
2018-06-03T05:18:43.525Z,80.50
2018-06-03T05:21:11.143Z,80.30
2018-06-03T05:23:39.054Z,79.10
2018-06-03T05:26:06.648Z,79.30
2018-06-03T05:28:35.218Z,79.30
2018-06-03T05:31:02.770Z,78.90
2018-06-03T05:33:30.303Z,78.10
2018-06-03T05:35:57.824Z,77.70
2018-06-03T05:38:25.381Z,78.10
2018-06-03T05:40:53.864Z,78.30
2018-06-03T05:43:21.808Z,77.50
2018-06-03T05:48:17.305Z,76.80
2018-06-03T05:50:44.828Z,77.60
2018-06-03T05:53:12.992Z,76.50
2018-06-03T05:55:40.540Z,76.80
2018-06-03T05:58:08.616Z,74.70
2018-06-03T06:00:36.807Z,75.80
2018-06-03T06:03:04.520Z,76.60
2018-06-03T06:05:32.128Z,74.30
2018-06-03T06:08:00.046Z,74.70
2018-06-03T06:10:27.647Z,74.00
2018-06-03T06:12:55.173Z,74.50
2018-06-03T06:15:22.933Z,74.00
2018-06-03T06:17:50.449Z,73.70
2018-06-03T06:20:18.799Z,73.60
2018-06-03T06:22:46.752Z,72.40
2018-06-03T06:25:14.356Z,73.10
2018-06-03T06:27:42.356Z,73.10
2018-06-03T06:30:09.897Z,72.50
2018-06-03T06:32:37.450Z,72.30
2018-06-03T06:35:05.119Z,72.00
2018-06-03T06:37:33.328Z,72.50
2018-06-03T06:42:29.805Z,71.50
2018-06-03T06:44:57.777Z,71.30
2018-06-03T06:47:25.316Z,71.00
2018-06-03T06:49:53.870Z,71.50
2018-06-03T06:52:21.825Z,71.50
2018-06-03T06:54:49.973Z,70.60
2018-06-03T06:57:17.632Z,70.60
2018-06-03T06:59:46.241Z,68.80
2018-06-03T07:02:14.363Z,69.60
2018-06-03T07:04:42.560Z,69.10
2018-06-03T07:07:10.258Z,68.90
2018-06-03T07:09:38.241Z,67.70
2018-06-03T07:12:05.865Z,68.20
2018-06-03T07:14:33.441Z,67.60
2018-06-03T07:17:01.101Z,66.80
2018-06-03T07:19:28.623Z,68.10
2018-06-03T07:21:56.806Z,67.00
2018-06-03T07:24:24.352Z,67.30
2018-06-03T07:26:52.009Z,66.30
2018-06-03T07:29:19.752Z,66.20
2018-06-03T07:31:47.322Z,66.60
2018-06-03T07:36:43.383Z,64.10
2018-06-03T07:39:10.971Z,66.30
2018-06-03T07:41:39.030Z,64.80
2018-06-03T07:44:07.017Z,65.60
2018-06-03T07:46:34.635Z,65.40
2018-06-03T07:49:02.684Z,65.40
2018-06-03T07:51:31.132Z,63.80
2018-06-03T07:53:58.672Z,65.00
2018-06-03T07:58:54.096Z,63.70
2018-06-03T08:01:22.150Z,63.70
2018-06-03T08:03:49.709Z,63.50
2018-06-03T08:06:17.237Z,63.60
2018-06-03T08:08:46.359Z,63.30
2018-06-03T08:11:13.895Z,61.40
2018-06-03T08:13:41.914Z,61.40
2018-06-03T08:16:09.477Z,62.90
2018-06-03T08:18:37.066Z,62.90
2018-06-03T08:21:04.656Z,62.00
2018-06-03T08:23:32.196Z,63.20
2018-06-03T08:25:59.816Z,62.20
2018-06-03T08:28:27.402Z,61.60
2018-06-03T08:30:56.142Z,60.50
2018-06-03T08:35:52.100Z,61.50
2018-06-03T08:38:19.626Z,61.80
2018-06-03T08:40:47.161Z,59.10
2018-06-03T08:43:15.200Z,60.40
2018-06-03T08:45:42.721Z,59.60
2018-06-03T08:48:10.656Z,58.90
2018-06-03T08:50:38.524Z,59.50
2018-06-03T08:53:06.400Z,58.80
2018-06-03T08:55:33.958Z,59.60
2018-06-03T08:58:02.113Z,59.30
2018-06-03T09:00:29.773Z,58.50
2018-06-03T09:02:57.856Z,60.00
2018-06-03T09:05:25.859Z,58.80
2018-06-03T09:07:54.009Z,58.40
2018-06-03T09:12:49.215Z,56.40
2018-06-03T09:15:17.213Z,56.00
2018-06-03T09:17:44.746Z,57.10
2018-06-03T09:20:12.926Z,54.50
2018-06-03T09:22:40.613Z,56.20
2018-06-03T09:25:08.172Z,54.90
2018-06-03T09:27:36.575Z,56.20
2018-06-03T09:30:04.317Z,53.80
2018-06-03T09:32:32.182Z,53.30
2018-06-03T09:35:00.349Z,53.50
2018-06-03T09:37:27.904Z,54.10
2018-06-03T09:39:55.495Z,54.40
2018-06-03T09:42:24.304Z,54.60
2018-06-03T09:47:20.677Z,53.00
2018-06-03T09:49:48.749Z,54.30
2018-06-03T09:52:16.608Z,53.30
2018-06-03T09:54:44.141Z,51.90
2018-06-03T09:57:12.334Z,52.20
2018-06-03T09:59:40.064Z,52.30
2018-06-03T10:02:07.972Z,52.10
2018-06-03T10:04:35.611Z,50.00
2018-06-03T10:07:03.194Z,52.20
2018-06-03T10:09:31.453Z,50.90
2018-06-03T10:11:59.412Z,52.00
2018-06-03T10:14:26.963Z,51.10
2018-06-03T10:16:54.584Z,49.30
2018-06-03T10:19:23.001Z,49.20
2018-06-03T10:21:51.227Z,48.80
2018-06-03T10:24:18.807Z,50.70
2018-06-03T10:26:46.349Z,49.30
2018-06-03T10:29:14.505Z,47.70
2018-06-03T10:31:42.034Z,49.90
2018-06-03T10:34:09.557Z,50.00
2018-06-03T10:36:37.142Z,49.50
2018-06-03T10:39:06.477Z,49.60
2018-06-03T10:44:03.648Z,49.80
2018-06-03T10:49:00.413Z,50.00
2018-06-03T10:53:56.133Z,49.30
2018-06-03T10:56:24.064Z,49.30
2018-06-03T10:58:51.621Z,48.70
2018-06-03T11:01:19.176Z,47.70
2018-06-03T11:03:47.271Z,48.50
2018-06-03T11:06:15.833Z,47.30
2018-06-03T11:08:43.712Z,47.50
2018-06-03T11:11:12.034Z,46.20
2018-06-03T11:13:40.342Z,47.00
2018-06-03T11:16:08.257Z,46.80
2018-06-03T11:18:36.045Z,47.60
2018-06-03T11:21:03.779Z,47.90
2018-06-03T11:23:32.350Z,47.70
2018-06-03T11:28:28.896Z,46.20
2018-06-03T11:30:56.816Z,45.00
2018-06-03T11:33:24.858Z,45.40
2018-06-03T11:35:52.645Z,45.20
2018-06-03T11:38:20.553Z,45.00
2018-06-03T11:40:48.481Z,44.70
2018-06-03T11:45:44.509Z,42.70
2018-06-03T11:48:13.525Z,42.70
2018-06-03T11:53:10.066Z,41.20
2018-06-03T11:55:37.705Z,41.40
2018-06-03T11:58:42.018Z,42.50
2018-06-03T12:01:10.269Z,41.80
2018-06-03T12:03:38.776Z,41.70
2018-06-03T12:06:06.757Z,40.30
2018-06-03T12:08:34.757Z,41.90
2018-06-03T12:11:02.310Z,41.60
2018-06-03T12:13:30.920Z,39.90
2018-06-03T12:15:59.199Z,40.10
2018-06-03T12:18:27.933Z,40.30
2018-06-03T12:20:55.863Z,41.10
2018-06-03T12:23:24.331Z,39.70
2018-06-03T12:25:52.123Z,39.40
2018-06-03T12:28:19.766Z,39.00
2018-06-03T12:30:48.693Z,38.50
2018-06-03T12:33:16.217Z,39.20
2018-06-03T12:35:43.861Z,39.10
2018-06-03T12:38:11.421Z,39.30
2018-06-03T12:40:39.717Z,38.90
2018-06-03T12:43:08.208Z,39.10
2018-06-03T12:50:32.677Z,37.80
2018-06-03T12:53:01.112Z,37.00
2018-06-03T12:55:28.880Z,37.40
2018-06-03T12:57:57.496Z,37.60
2018-06-03T13:00:26.123Z,36.80
2018-06-03T13:02:53.905Z,37.20
2018-06-03T13:05:21.671Z,36.70
2018-06-03T13:07:50.536Z,36.30
2018-06-03T13:10:18.378Z,37.70
2018-06-03T13:12:45.936Z,35.90
2018-06-03T13:15:13.854Z,37.30
2018-06-03T13:17:41.404Z,36.60
2018-06-03T13:22:37.504Z,36.60
2018-06-03T13:25:05.429Z,36.50
2018-06-03T13:27:33.192Z,37.10
2018-06-03T13:30:00.951Z,36.20
2018-06-03T13:32:28.642Z,36.20
2018-06-03T13:34:56.749Z,36.80
2018-06-03T13:37:25.126Z,36.10
2018-06-03T13:39:53.473Z,36.20
2018-06-03T13:42:21.762Z,36.00
2018-06-03T13:44:50.114Z,35.70
2018-06-03T13:47:18.571Z,36.50
2018-06-03T13:49:46.931Z,36.30
2018-06-03T13:52:14.437Z,35.60
2018-06-03T13:54:41.970Z,34.30
2018-06-03T13:57:09.517Z,33.00
2018-06-03T13:59:37.040Z,33.10
2018-06-03T14:02:05.005Z,32.60
2018-06-03T14:04:32.621Z,31.80
2018-06-03T14:07:00.634Z,31.20
2018-06-03T14:09:28.600Z,31.40
2018-06-03T14:11:56.449Z,30.40
2018-06-03T14:14:25.173Z,31.20
2018-06-03T14:16:52.760Z,31.20
2018-06-03T14:19:21.335Z,30.20
2018-06-03T14:21:48.828Z,29.40
2018-06-03T14:24:16.371Z,29.00
2018-06-03T14:26:44.616Z,30.10
2018-06-03T14:29:12.245Z,30.10
2018-06-03T14:31:40.515Z,28.90
2018-06-03T14:36:36.061Z,29.00
2018-06-03T14:41:34.672Z,28.20
2018-06-03T14:44:03.676Z,28.80
2018-06-03T14:46:31.840Z,28.60
2018-06-03T14:48:59.965Z,29.30
2018-06-03T14:51:28.768Z,28.70
2018-06-03T14:53:56.944Z,29.30
2018-06-03T14:56:24.488Z,29.70
2018-06-03T14:58:51.987Z,29.60
2018-06-03T15:01:19.650Z,30.40
2018-06-03T15:03:47.217Z,30.80
2018-06-03T15:06:14.733Z,31.40
2018-06-03T15:08:42.253Z,31.10
2018-06-03T15:11:09.814Z,30.30
2018-06-03T15:13:38.629Z,30.50
2018-06-03T15:16:07.169Z,29.30
2018-06-03T15:18:34.717Z,29.80
2018-06-03T15:21:02.729Z,28.80
2018-06-03T15:23:30.253Z,29.90
2018-06-03T15:25:58.625Z,30.00
2018-06-03T15:28:27.824Z,30.10
2018-06-03T15:30:55.360Z,30.00
2018-06-03T15:33:23.644Z,30.60
2018-06-03T15:35:51.573Z,30.40
2018-06-03T15:38:20.152Z,30.90
2018-06-03T15:40:48.401Z,30.70
2018-06-03T15:43:16.445Z,31.20
2018-06-03T15:45:44.111Z,31.50
2018-06-03T15:48:12.428Z,31.60
2018-06-03T15:50:40.055Z,31.80
2018-06-03T15:53:07.583Z,31.80
2018-06-03T15:55:35.249Z,31.30
2018-06-03T15:58:02.829Z,31.40
2018-06-03T16:00:30.518Z,32.10
2018-06-03T16:02:58.095Z,32.60
2018-06-03T16:05:25.626Z,32.20
2018-06-03T16:07:53.220Z,33.20
2018-06-03T16:10:21.409Z,32.80
2018-06-03T16:12:49.450Z,32.90
2018-06-03T16:15:18.005Z,33.20
2018-06-03T16:17:45.531Z,33.50
2018-06-03T16:20:13.302Z,33.50
2018-06-03T16:22:40.855Z,32.80
2018-06-03T16:25:08.397Z,32.70
2018-06-03T16:27:36.063Z,32.20
2018-06-03T16:30:04.622Z,32.10
2018-06-03T16:32:32.150Z,32.90
2018-06-03T16:35:00.147Z,32.50
2018-06-03T16:37:27.672Z,33.50
2018-06-03T16:39:55.193Z,32.30
2018-06-03T16:42:23.249Z,32.50
2018-06-03T16:44:51.693Z,32.80
2018-06-03T16:47:19.207Z,32.80
2018-06-03T16:49:47.788Z,32.30
2018-06-03T16:52:15.343Z,31.90
2018-06-03T16:54:42.884Z,31.20
2018-06-03T16:57:10.444Z,31.50
2018-06-03T16:59:38.451Z,32.40
2018-06-03T17:02:06.061Z,32.20
2018-06-03T17:04:34.696Z,30.30
2018-06-03T17:07:02.600Z,29.60
2018-06-03T17:09:30.204Z,29.30
2018-06-03T17:11:58.205Z,29.50
2018-06-03T17:14:25.748Z,29.60
2018-06-03T17:19:21.309Z,29.00
2018-06-03T17:24:16.357Z,27.90
2018-06-03T17:26:43.911Z,28.50
2018-06-03T17:29:12.189Z,29.10
2018-06-03T17:31:40.186Z,29.50
2018-06-03T17:34:07.875Z,30.00
2018-06-03T17:36:35.410Z,30.30
2018-06-03T17:39:03.935Z,30.80
2018-06-03T17:41:31.877Z,31.30
2018-06-03T17:44:00.605Z,32.40
2018-06-03T17:46:28.149Z,35.10
2018-06-03T17:48:56.171Z,36.60
2018-06-03T17:51:23.694Z,38.60
2018-06-03T17:53:51.653Z,38.80
2018-06-03T17:56:20.477Z,39.30
2018-06-03T17:58:49.011Z,40.30
2018-06-03T18:01:17.101Z,39.00
2018-06-03T18:03:45.726Z,40.90
2018-06-03T18:06:13.282Z,39.40
2018-06-03T18:08:41.034Z,39.90
2018-06-03T18:11:09.527Z,39.90
2018-06-03T18:13:37.077Z,40.00
2018-06-03T18:16:05.316Z,40.10
2018-06-03T18:18:33.312Z,39.90
2018-06-03T18:21:01.115Z,40.10
2018-06-03T18:23:29.129Z,40.00
